Time;durP1;ratioP1;P1;durP2;ratioP2;P2;SDS_P1;SDS_P2;PMS_P1;PMS_P2;Temp;Humidity;BMP_temperature;BMP_pressure;BME280_temperature;BME280_humidity;BME280_pressure;Samples;Min_cycle;Max_cycle;Signal;HPM_P1;HPM_P2
2023/03/08 00:02:56;;;;;;;7.70;6.57;;;7.60;28.40;;;;;;10317901;28;20253;-70
2023/03/08 00:08:00;;;;;;;7.07;5.87;;;7.60;28.30;;;;;;10317868;28;20227;-69
2023/03/08 00:13:03;;;;;;;8.23;6.80;;;7.60;28.30;;;;;;10319081;28;20230;-70
2023/03/08 00:18:07;;;;;;;7.53;5.83;;;7.60;28.10;;;;;;10317202;28;20817;-70
2023/03/08 00:23:10;;;;;;;7.63;6.10;;;7.70;28.20;;;;;;10318725;28;20235;-70
2023/03/08 00:28:13;;;;;;;8.47;6.53;;;7.70;28.10;;;;;;10318786;28;20227;-70
2023/03/08 00:33:18;;;;;;;6.60;6.00;;;7.70;27.90;;;;;;10319187;28;20241;-70
2023/03/08 00:38:21;;;;;;;7.50;6.17;;;7.70;28.00;;;;;;10316555;28;20234;-70
2023/03/08 00:43:24;;;;;;;6.47;5.53;;;7.70;28.10;;;;;;10318488;28;20237;-70
2023/03/08 00:48:29;;;;;;;7.60;5.63;;;7.70;28.20;;;;;;10318882;28;20238;-70
2023/03/08 00:53:32;;;;;;;6.37;5.77;;;7.70;28.00;;;;;;10315693;28;20235;-70
2023/03/08 00:58:37;;;;;;;7.10;5.90;;;7.70;28.10;;;;;;10319823;28;20227;-70
2023/03/08 01:03:41;;;;;;;6.67;5.97;;;7.70;27.90;;;;;;10314898;28;20253;-70
2023/03/08 01:08:45;;;;;;;6.50;5.80;;;7.80;27.90;;;;;;10318015;28;20234;-70
2023/03/08 01:13:50;;;;;;;7.50;6.33;;;7.80;27.90;;;;;;10318019;28;20231;-70
2023/03/08 01:18:55;;;;;;;7.03;6.33;;;7.80;27.70;;;;;;10318042;28;20806;-70
2023/03/08 01:23:58;;;;;;;6.17;5.60;;;7.80;27.70;;;;;;10321625;28;20309;-70
2023/03/08 01:29:01;;;;;;;6.40;5.40;;;7.80;28.00;;;;;;10326853;28;20223;-70
2023/03/08 01:34:06;;;;;;;6.07;5.40;;;7.80;27.90;;;;;;10324484;28;20731;-70
2023/03/08 01:39:09;;;;;;;6.57;5.70;;;7.70;27.70;;;;;;10323473;28;20234;-70
2023/03/08 01:44:16;;;;;;;5.80;5.13;;;7.70;27.90;;;;;;10324782;28;20230;-70
2023/03/08 01:49:23;;;;;;;7.10;5.93;;;7.60;27.60;;;;;;10319540;28;20223;-70
2023/03/08 01:54:28;;;;;;;6.17;5.57;;;7.60;27.80;;;;;;10323711;28;20251;-70
2023/03/08 01:59:34;;;;;;;6.90;5.67;;;7.50;27.90;;;;;;10321209;28;20254;-70
2023/03/08 02:04:40;;;;;;;7.10;6.40;;;7.50;27.90;;;;;;10324880;28;20270;-74
2023/03/08 02:09:43;;;;;;;7.30;6.27;;;7.40;27.80;;;;;;10322231;28;20324;-74
2023/03/08 02:14:47;;;;;;;9.50;7.00;;;7.40;28.00;;;;;;10324222;28;20613;-74
2023/03/08 02:19:57;;;;;;;6.80;6.10;;;7.40;28.00;;;;;;10321841;28;20231;-74
2023/03/08 02:25:01;;;;;;;6.57;5.90;;;7.40;27.90;;;;;;10322867;28;20231;-74
2023/03/08 02:30:05;;;;;;;6.80;6.10;;;7.30;28.00;;;;;;10323711;28;20223;-72
2023/03/08 02:35:09;;;;;;;6.70;5.60;;;7.40;28.10;;;;;;10319042;28;20719;-72
2023/03/08 02:40:14;;;;;;;9.10;5.70;;;7.40;28.20;;;;;;10323225;28;20270;-72
2023/03/08 02:45:18;;;;;;;6.87;6.17;;;7.30;28.10;;;;;;10323914;28;20591;-72
2023/03/08 02:50:21;;;;;;;7.30;5.90;;;7.30;28.80;;;;;;10322589;28;20738;-72
2023/03/08 02:55:25;;;;;;;8.00;6.43;;;7.30;28.20;;;;;;10320864;28;20258;-72
2023/03/08 03:00:29;;;;;;;7.47;5.93;;;7.20;28.20;;;;;;10320813;28;20241;-72
2023/03/08 03:05:32;;;;;;;7.47;6.60;;;7.20;28.20;;;;;;10322558;28;20223;-72
2023/03/08 03:10:37;;;;;;;7.07;6.37;;;7.10;28.30;;;;;;10320013;28;20585;-72
2023/03/08 03:15:39;;;;;;;6.90;6.20;;;7.10;28.40;;;;;;10321706;28;20738;-71
2023/03/08 03:20:42;;;;;;;8.13;5.83;;;7.00;28.30;;;;;;10319553;28;20246;-71
2023/03/08 03:25:47;;;;;;;5.90;5.30;;;7.00;28.40;;;;;;10320802;28;20591;-70
2023/03/08 03:30:50;;;;;;;6.53;5.83;;;6.90;28.30;;;;;;10321796;28;20234;-70
2023/03/08 03:35:53;;;;;;;7.40;6.20;;;6.90;28.40;;;;;;10319616;28;20773;-70
2023/03/08 03:41:02;;;;;;;6.77;6.10;;;6.80;28.40;;;;;;10320498;28;20235;-70
2023/03/08 03:46:08;;;;;;;7.17;5.60;;;6.80;28.40;;;;;;10319242;28;20222;-71
2023/03/08 03:51:13;;;;;;;7.17;6.23;;;6.80;28.50;;;;;;10320241;28;20627;-70
2023/03/08 03:56:20;;;;;;;8.47;6.10;;;6.70;28.40;;;;;;10321066;28;20610;-71
2023/03/08 04:01:25;;;;;;;6.80;5.97;;;6.70;28.40;;;;;;10318243;28;20226;-71
2023/03/08 04:06:29;;;;;;;7.20;6.50;;;6.60;28.40;;;;;;10319374;28;20232;-72
2023/03/08 04:11:36;;;;;;;6.57;5.67;;;6.60;28.50;;;;;;10316787;28;20591;-72
2023/03/08 04:16:40;;;;;;;7.23;6.47;;;6.50;28.60;;;;;;10317318;28;20883;-72
2023/03/08 04:21:43;;;;;;;8.30;6.27;;;6.40;28.60;;;;;;10319934;28;20223;-72
2023/03/08 04:26:47;;;;;;;7.40;6.40;;;6.40;28.70;;;;;;10317672;28;20277;-72
2023/03/08 04:31:50;;;;;;;7.33;6.57;;;6.30;28.80;;;;;;10321284;28;20703;-72
2023/03/08 04:36:53;;;;;;;7.70;6.50;;;6.20;28.80;;;;;;10318271;28;20229;-72
2023/03/08 04:41:58;;;;;;;7.60;6.33;;;6.00;28.90;;;;;;10317821;28;20589;-72
2023/03/08 04:47:01;;;;;;;7.67;6.50;;;5.90;29.20;;;;;;10319119;28;20711;-71
2023/03/08 04:52:04;;;;;;;8.50;7.17;;;5.90;29.20;;;;;;10314214;28;20748;-74
2023/03/08 04:57:09;;;;;;;7.50;6.67;;;5.90;29.30;;;;;;10318531;28;20231;-71
2023/03/08 05:02:12;;;;;;;7.57;6.73;;;5.90;29.50;;;;;;10326811;28;20234;-71
2023/03/08 05:07:15;;;;;;;8.77;6.93;;;5.90;29.40;;;;;;10325718;28;20230;-74
2023/03/08 05:12:20;;;;;;;8.20;6.90;;;5.90;29.40;;;;;;10323517;28;20219;-74
2023/03/08 05:17:23;;;;;;;9.20;7.50;;;5.90;29.50;;;;;;10325082;28;20223;-74
2023/03/08 05:22:26;;;;;;;8.70;6.97;;;5.90;29.50;;;;;;10324294;28;20239;-75
2023/03/08 05:27:33;;;;;;;8.90;7.60;;;5.80;29.60;;;;;;10323874;28;20238;-75
2023/03/08 05:32:36;;;;;;;9.43;7.73;;;5.80;29.80;;;;;;10327607;28;20248;-75
2023/03/08 05:37:39;;;;;;;9.40;7.80;;;5.80;29.70;;;;;;10323755;28;20731;-75
2023/03/08 05:42:44;;;;;;;9.77;7.63;;;5.80;29.70;;;;;;10325221;28;20234;-72
2023/03/08 05:47:47;;;;;;;9.83;8.03;;;5.80;29.80;;;;;;10323175;28;20242;-72
2023/03/08 05:52:50;;;;;;;16.67;12.10;;;5.80;29.80;;;;;;10325017;28;20801;-71
2023/03/08 05:57:54;;;;;;;31.00;22.30;;;5.90;29.80;;;;;;10321095;28;20238;-71
2023/03/08 06:03:02;;;;;;;15.50;12.23;;;5.90;29.90;;;;;;10323811;28;20234;-71
2023/03/08 06:08:06;;;;;;;14.30;10.33;;;6.00;29.90;;;;;;10323415;28;20710;-71
2023/03/08 06:13:10;;;;;;;12.53;9.83;;;6.00;29.90;;;;;;10323497;28;20222;-71
2023/03/08 06:18:13;;;;;;;14.73;11.10;;;6.00;29.90;;;;;;10323812;28;20258;-70
2023/03/08 06:23:17;;;;;;;11.27;9.13;;;6.10;30.00;;;;;;10319963;28;20230;-70
2023/03/08 06:28:23;;;;;;;10.70;8.53;;;6.10;30.00;;;;;;10322726;28;20237;-71
2023/03/08 06:33:29;;;;;;;10.73;9.03;;;6.10;31.20;;;;;;10309849;28;20238;-71
2023/03/08 06:38:34;;;;;;;9.20;8.23;;;6.20;30.30;;;;;;10314155;28;20242;-71
2023/03/08 06:43:39;;;;;;;9.03;8.13;;;6.30;30.20;;;;;;10312560;28;20238;-70
2023/03/08 06:48:42;;;;;;;11.03;8.20;;;6.30;30.20;;;;;;10313169;28;20235;-71
2023/03/08 06:53:47;;;;;;;10.67;9.33;;;6.30;30.00;;;;;;10314049;28;20239;-71
2023/03/08 06:58:51;;;;;;;10.47;9.10;;;6.30;30.10;;;;;;10313603;28;20870;-71
2023/03/08 07:03:54;;;;;;;11.50;9.83;;;6.30;30.20;;;;;;10312183;28;20223;-71
2023/03/08 07:08:58;;;;;;;10.80;9.70;;;6.40;30.20;;;;;;10314253;28;20808;-71
2023/03/08 07:14:02;;;;;;;11.80;9.87;;;6.40;30.30;;;;;;10312023;28;20231;-71
2023/03/08 07:19:05;;;;;;;11.83;10.57;;;6.40;30.40;;;;;;10310699;28;20238;-71
2023/03/08 07:24:09;;;;;;;12.33;11.03;;;6.50;30.30;;;;;;10313472;28;20269;-71
2023/03/08 07:29:13;;;;;;;14.17;9.70;;;6.60;30.40;;;;;;10310208;28;20735;-71
2023/03/08 07:34:16;;;;;;;11.90;9.43;;;6.70;30.60;;;;;;10311980;28;20234;-71
2023/03/08 07:39:20;;;;;;;9.93;8.63;;;6.70;30.40;;;;;;10309333;28;20460;-71
2023/03/08 07:44:24;;;;;;;11.13;9.23;;;6.80;30.60;;;;;;10311414;28;20235;-71
2023/03/08 07:49:28;;;;;;;11.87;10.13;;;6.90;30.70;;;;;;10313578;28;20235;-71
2023/03/08 07:54:31;;;;;;;12.27;9.57;;;6.90;30.60;;;;;;10314502;28;20300;-71
2023/03/08 07:59:35;;;;;;;10.53;9.40;;;7.00;30.70;;;;;;10317001;28;20257;-71
2023/03/08 08:04:38;;;;;;;11.70;10.50;;;7.10;30.90;;;;;;10313232;28;20242;-71
2023/03/08 08:09:42;;;;;;;11.60;10.17;;;7.20;30.80;;;;;;10317431;28;20231;-70
2023/03/08 08:14:46;;;;;;;11.53;10.33;;;7.30;30.90;;;;;;10319232;28;20518;-71
2023/03/08 08:19:50;;;;;;;11.20;9.77;;;7.30;30.90;;;;;;10317790;28;20238;-70
2023/03/08 08:24:53;;;;;;;13.80;11.07;;;7.40;30.90;;;;;;10316629;28;20227;-70
2023/03/08 08:29:58;;;;;;;11.23;10.03;;;7.50;31.10;;;;;;10313639;28;20234;-71
2023/03/08 08:35:01;;;;;;;11.47;9.67;;;7.60;31.30;;;;;;10313516;28;20231;-70
2023/03/08 08:40:06;;;;;;;12.37;9.43;;;7.60;31.20;;;;;;10314830;28;20230;-70
2023/03/08 08:45:11;;;;;;;10.83;9.50;;;7.80;31.70;;;;;;10318106;28;20281;-70
2023/03/08 08:50:15;;;;;;;10.87;9.53;;;7.80;32.30;;;;;;10317558;28;20227;-70
2023/03/08 08:55:18;;;;;;;13.43;9.83;;;7.90;32.00;;;;;;10318416;28;20608;-70
2023/03/08 09:00:22;;;;;;;11.33;10.10;;;7.90;32.00;;;;;;10317200;28;20227;-70
2023/03/08 09:05:26;;;;;;;12.23;10.13;;;8.00;32.40;;;;;;10314478;28;20600;-71
2023/03/08 09:10:32;;;;;;;11.07;9.97;;;8.00;32.40;;;;;;10318068;28;20234;-71
2023/03/08 09:15:37;;;;;;;11.93;10.70;;;8.00;32.60;;;;;;10316988;28;20250;-70
2023/03/08 09:20:40;;;;;;;12.37;11.07;;;8.10;32.90;;;;;;10317671;28;20315;-71
2023/03/08 09:25:43;;;;;;;11.20;10.00;;;8.20;33.30;;;;;;10317487;28;20231;-70
2023/03/08 09:30:47;;;;;;;11.30;9.90;;;8.20;32.50;;;;;;10315509;28;20708;-70
2023/03/08 09:35:56;;;;;;;10.70;9.60;;;8.30;32.70;;;;;;10314709;28;20702;-71
2023/03/08 09:41:13;;;;;;;10.87;9.63;;;8.30;33.20;;;;;;10315088;28;20235;-71
2023/03/08 09:46:26;;;;;;;9.87;8.87;;;8.40;33.50;;;;;;10323199;28;20307;-71
2023/03/08 09:51:34;;;;;;;10.93;9.77;;;8.40;33.50;;;;;;10324900;28;20300;-71
2023/03/08 09:56:42;;;;;;;10.00;9.00;;;8.40;33.40;;;;;;10323999;28;20231;-71
2023/03/08 10:01:55;;;;;;;10.97;9.77;;;8.40;33.00;;;;;;10324929;28;20712;-71
2023/03/08 10:07:18;;;;;;;12.67;10.17;;;8.40;33.50;;;;;;10323161;28;20728;-70
2023/03/08 10:12:28;;;;;;;10.73;9.60;;;8.40;33.90;;;;;;10322570;28;20235;-71
2023/03/08 10:17:40;;;;;;;11.67;9.17;;;8.50;33.90;;;;;;10323253;28;20512;-70
2023/03/08 10:22:44;;;;;;;10.50;9.37;;;8.50;34.10;;;;;;10323059;28;20230;-71
2023/03/08 10:27:50;;;;;;;10.43;9.33;;;8.50;33.60;;;;;;10323132;28;20604;-70
2023/03/08 10:32:59;;;;;;;11.37;10.17;;;8.50;33.60;;;;;;10322931;28;20242;-70
2023/03/08 10:38:03;;;;;;;11.87;10.67;;;8.40;34.40;;;;;;10318783;28;20235;-70
2023/03/08 10:43:06;;;;;;;16.57;13.23;;;8.30;33.80;;;;;;10321859;28;20609;-70
2023/03/08 10:48:21;;;;;;;17.77;13.90;;;8.20;34.10;;;;;;10313552;28;20234;-70
2023/03/08 10:53:27;;;;;;;11.77;10.57;;;8.20;35.60;;;;;;10317725;28;20251;-70
2023/03/08 10:58:36;;;;;;;11.67;10.47;;;8.10;34.10;;;;;;10317149;28;20227;-71
2023/03/08 11:03:40;;;;;;;25.40;15.87;;;8.10;35.20;;;;;;10317050;28;20342;-71
2023/03/08 11:08:53;;;;;;;25.67;17.30;;;8.00;35.00;;;;;;10316099;28;20234;-71
2023/03/08 11:13:56;;;;;;;19.87;13.80;;;8.00;36.50;;;;;;10313320;28;20578;-71
2023/03/08 11:19:07;;;;;;;17.03;12.00;;;8.00;35.10;;;;;;10317447;28;20242;-71
2023/03/08 11:24:25;;;;;;;18.23;14.47;;;7.90;36.50;;;;;;10317550;28;20235;-70
2023/03/08 11:29:42;;;;;;;14.80;11.47;;;7.90;37.20;;;;;;10318685;28;20235;-73
2023/03/08 11:35:04;;;;;;;11.57;9.70;;;8.00;37.20;;;;;;10313611;28;20226;-71
2023/03/08 11:40:20;;;;;;;9.33;8.27;;;8.10;37.90;;;;;;10314869;28;20239;-71
2023/03/08 11:45:28;;;;;;;9.43;8.40;;;8.10;38.40;;;;;;10317479;28;20707;-70
2023/03/08 11:50:36;;;;;;;10.10;7.77;;;8.10;37.90;;;;;;10316723;28;20223;-71
2023/03/08 11:55:53;;;;;;;25.73;23.33;;;8.20;37.90;;;;;;10315910;28;20231;-70
2023/03/08 12:01:01;;;;;;;34.17;24.07;;;8.30;38.80;;;;;;10316801;28;20305;-73
2023/03/08 12:06:13;;;;;;;30.53;24.40;;;8.40;38.30;;;;;;10317862;28;20242;-72
2023/03/08 12:11:36;;;;;;;22.20;19.80;;;8.50;38.60;;;;;;10315831;28;20218;-72
2023/03/08 12:16:47;;;;;;;11.90;9.80;;;8.60;37.90;;;;;;10317863;28;20242;-72
2023/03/08 12:21:59;;;;;;;9.03;8.13;;;8.70;38.30;;;;;;10316143;28;20574;-72
2023/03/08 12:27:08;;;;;;;8.43;6.53;;;8.80;38.40;;;;;;10319309;28;20222;-72
2023/03/08 12:32:14;;;;;;;7.37;6.40;;;9.00;38.10;;;;;;10316359;28;20231;-72
2023/03/08 12:37:24;;;;;;;7.13;5.97;;;9.20;37.80;;;;;;10317780;28;20727;-72
2023/03/08 12:42:33;;;;;;;6.80;6.03;;;9.40;38.20;;;;;;10317093;28;20231;-72
2023/03/08 12:47:36;;;;;;;6.50;5.83;;;9.50;38.00;;;;;;10318254;28;20734;-72
2023/03/08 12:52:41;;;;;;;6.63;5.97;;;9.70;37.10;;;;;;10318109;28;20227;-72
2023/03/08 12:57:49;;;;;;;7.10;6.33;;;9.90;37.30;;;;;;10313127;28;20793;-75
2023/03/08 13:03:00;;;;;;;8.27;7.07;;;10.10;36.70;;;;;;10318987;28;20235;-73
2023/03/08 13:08:21;;;;;;;6.77;5.73;;;10.30;36.80;;;;;;10316415;28;20226;-72
2023/03/08 13:13:31;;;;;;;7.60;6.57;;;10.50;36.80;;;;;;10315182;28;20249;-73
2023/03/08 13:18:42;;;;;;;9.03;7.13;;;10.70;36.40;;;;;;10320260;28;20230;-73
2023/03/08 13:23:54;;;;;;;10.57;9.43;;;10.90;36.00;;;;;;10323491;28;20345;-73
2023/03/08 13:28:57;;;;;;;7.70;6.70;;;11.10;36.40;;;;;;10324353;28;20231;-73
2023/03/08 13:34:00;;;;;;;6.87;5.93;;;11.20;35.80;;;;;;10326889;28;20239;-73
2023/03/08 13:39:07;;;;;;;5.67;5.00;;;11.40;35.70;;;;;;10323976;28;20700;-73
2023/03/08 13:44:16;;;;;;;5.40;4.90;;;11.50;36.00;;;;;;10324361;28;20227;-73
2023/03/08 13:49:24;;;;;;;5.83;4.73;;;11.70;36.00;;;;;;10326742;28;20241;-73
2023/03/08 13:54:33;;;;;;;5.37;3.80;;;11.90;36.00;;;;;;10325222;28;20634;-73
2023/03/08 13:59:36;;;;;;;3.53;3.23;;;12.00;36.10;;;;;;10325459;28;20715;-73
2023/03/08 14:04:43;;;;;;;2.90;2.60;;;12.10;35.60;;;;;;10323729;28;20306;-73
2023/03/08 14:09:47;;;;;;;3.00;2.70;;;12.30;35.90;;;;;;10324981;28;20231;-73
2023/03/08 14:14:54;;;;;;;2.70;2.50;;;12.50;35.80;;;;;;10322037;28;20231;-73
2023/03/08 14:19:59;;;;;;;2.53;2.33;;;12.60;35.70;;;;;;10324088;28;20600;-73
2023/03/08 14:25:05;;;;;;;2.80;2.60;;;12.70;35.60;;;;;;10322619;28;20226;-72
2023/03/08 14:30:15;;;;;;;2.60;2.40;;;12.80;35.70;;;;;;10321142;28;20239;-73
2023/03/08 14:35:23;;;;;;;2.23;2.07;;;13.00;36.10;;;;;;10319033;28;20232;-73
2023/03/08 14:40:34;;;;;;;2.00;1.90;;;13.10;36.00;;;;;;10321857;28;20227;-72
2023/03/08 14:45:39;;;;;;;2.10;1.87;;;13.30;36.00;;;;;;10321802;28;20231;-73
2023/03/08 14:50:53;;;;;;;1.90;1.70;;;13.40;35.70;;;;;;10320262;28;20235;-73
2023/03/08 14:55:59;;;;;;;1.80;1.70;;;13.60;36.10;;;;;;10318808;28;21059;-73
2023/03/08 15:01:03;;;;;;;2.13;1.60;;;13.70;35.70;;;;;;10318971;28;20250;-72
2023/03/08 15:06:14;;;;;;;2.30;1.40;;;13.90;35.50;;;;;;10322727;28;20594;-72
2023/03/08 15:11:19;;;;;;;1.63;1.53;;;14.00;35.50;;;;;;10321658;28;20241;-72
2023/03/08 15:16:22;;;;;;;1.53;1.43;;;14.20;35.50;;;;;;10321222;28;20258;-73
2023/03/08 15:21:28;;;;;;;1.57;1.40;;;14.30;35.20;;;;;;10319513;28;20227;-73
2023/03/08 15:26:32;;;;;;;1.30;1.23;;;14.40;35.20;;;;;;10320608;28;20696;-74
2023/03/08 15:31:35;;;;;;;1.60;1.50;;;14.50;35.20;;;;;;10318260;28;20230;-71
2023/03/08 15:36:39;;;;;;;1.50;1.40;;;14.60;35.10;;;;;;10317704;28;20517;-75
2023/03/08 15:41:43;;;;;;;1.90;1.13;;;14.60;34.90;;;;;;10319728;28;20230;-75
2023/03/08 15:46:46;;;;;;;1.73;1.10;;;14.70;34.80;;;;;;10315479;28;20591;-75
2023/03/08 15:51:49;;;;;;;1.37;1.27;;;14.80;34.70;;;;;;10316129;28;20253;-76
2023/03/08 15:56:54;;;;;;;1.77;1.50;;;14.80;34.50;;;;;;10314939;28;20738;-75
2023/03/08 16:01:57;;;;;;;1.23;1.17;;;14.80;34.60;;;;;;10319729;28;20238;-71
2023/03/08 16:07:01;;;;;;;1.27;1.17;;;14.80;34.50;;;;;;10317508;28;20227;-70
2023/03/08 16:12:06;;;;;;;1.10;1.10;;;14.80;34.40;;;;;;10317845;28;20234;-70
2023/03/08 16:17:09;;;;;;;1.70;1.00;;;14.90;34.40;;;;;;10319763;28;20735;-70
2023/03/08 16:22:12;;;;;;;1.20;1.10;;;14.90;34.50;;;;;;10314373;28;20222;-72
2023/03/08 16:27:17;;;;;;;0.93;0.93;;;14.90;34.40;;;;;;10314969;28;20235;-69
2023/03/08 16:32:20;;;;;;;1.00;1.00;;;14.90;34.30;;;;;;10314627;28;20238;-68
2023/03/08 16:37:24;;;;;;;1.00;1.00;;;15.00;34.30;;;;;;10314523;28;20637;-69
2023/03/08 16:42:29;;;;;;;1.57;1.47;;;15.00;34.20;;;;;;10315461;28;20602;-69
2023/03/08 16:47:33;;;;;;;1.33;1.23;;;15.00;34.10;;;;;;10314532;28;20708;-69
2023/03/08 16:52:36;;;;;;;1.67;1.57;;;15.00;34.00;;;;;;10313746;28;20689;-69
2023/03/08 16:57:40;;;;;;;1.60;1.37;;;14.90;34.70;;;;;;10313296;28;20707;-67
2023/03/08 17:02:43;;;;;;;1.70;1.30;;;14.90;34.00;;;;;;10318221;28;20603;-69
2023/03/08 17:07:47;;;;;;;1.27;1.23;;;14.90;34.00;;;;;;10317366;28;20393;-69
2023/03/08 17:12:52;;;;;;;1.30;1.20;;;14.80;33.90;;;;;;10312884;28;20250;-69
2023/03/08 17:17:55;;;;;;;1.27;1.17;;;14.80;33.90;;;;;;10314733;28;20237;-69
2023/03/08 17:22:59;;;;;;;1.80;1.30;;;14.80;34.00;;;;;;10312122;28;20231;-70
2023/03/08 17:28:04;;;;;;;1.40;1.30;;;14.70;34.70;;;;;;10317502;28;20625;-70
2023/03/08 17:33:07;;;;;;;2.20;1.13;;;14.60;34.00;;;;;;10317659;28;20747;-70
2023/03/08 17:38:10;;;;;;;1.60;1.50;;;14.60;34.10;;;;;;10306560;28;20281;-71
2023/03/08 17:43:15;;;;;;;5.10;4.40;;;14.50;34.20;;;;;;10313241;28;20285;-71
2023/03/08 17:48:18;;;;;;;4.00;3.60;;;14.50;34.40;;;;;;10309827;28;20716;-68
2023/03/08 17:53:22;;;;;;;2.83;2.13;;;14.50;34.40;;;;;;10313234;28;20235;-70
2023/03/08 17:58:26;;;;;;;2.00;1.90;;;14.50;34.40;;;;;;10312457;28;20230;-71
2023/03/08 18:03:29;;;;;;;1.90;1.50;;;14.50;34.30;;;;;;10310161;28;20227;-71
2023/03/08 18:08:34;;;;;;;1.40;1.30;;;14.60;34.40;;;;;;10320096;28;20235;-75
2023/03/08 18:13:38;;;;;;;1.57;1.47;;;14.60;34.50;;;;;;10314568;28;20234;-74
2023/03/08 18:18:44;;;;;;;1.27;1.10;;;14.60;34.50;;;;;;10317079;28;20230;-71
2023/03/08 18:23:47;;;;;;;0.90;0.90;;;14.60;34.40;;;;;;10319802;28;20738;-72
2023/03/08 18:28:52;;;;;;;1.37;0.90;;;14.60;34.30;;;;;;10319662;28;20231;-71
2023/03/08 18:33:55;;;;;;;0.70;0.70;;;14.70;34.40;;;;;;10319725;28;20219;-71
2023/03/08 18:38:58;;;;;;;0.70;0.70;;;14.70;34.90;;;;;;10321071;28;20235;-71
2023/03/08 18:44:03;;;;;;;0.70;0.70;;;14.60;35.10;;;;;;10318698;28;20223;-71
2023/03/08 18:49:08;;;;;;;0.83;0.83;;;14.60;35.50;;;;;;10318171;28;20231;-71
2023/03/08 18:54:14;;;;;;;0.90;0.90;;;14.50;35.90;;;;;;10320112;28;20282;-72
2023/03/08 18:59:19;;;;;;;0.80;0.80;;;14.30;36.50;;;;;;10318669;28;20262;-71
2023/03/08 19:04:22;;;;;;;1.13;1.00;;;14.10;36.70;;;;;;10315856;28;20223;-71
2023/03/08 19:09:25;;;;;;;1.40;1.30;;;14.00;36.30;;;;;;10318596;28;20235;-71
2023/03/08 19:14:30;;;;;;;1.30;1.23;;;13.80;36.70;;;;;;10315785;28;21757;-71
2023/03/08 19:19:33;;;;;;;1.27;1.20;;;13.70;37.00;;;;;;10319552;28;20231;-71
2023/03/08 19:24:37;;;;;;;1.77;1.50;;;13.60;36.70;;;;;;10318222;28;20231;-71
2023/03/08 19:29:41;;;;;;;1.77;1.47;;;13.60;36.80;;;;;;10318947;28;20579;-72
2023/03/08 19:34:47;;;;;;;1.67;1.40;;;13.60;37.00;;;;;;10317046;28;20227;-71
2023/03/08 19:39:50;;;;;;;1.80;1.60;;;13.60;36.80;;;;;;10317647;28;20242;-72
2023/03/08 19:44:54;;;;;;;1.50;1.40;;;13.60;36.80;;;;;;10315831;28;20230;-70
2023/03/08 19:49:58;;;;;;;1.60;1.50;;;13.60;36.80;;;;;;10316176;28;21042;-71
2023/03/08 19:55:01;;;;;;;1.33;1.23;;;13.60;36.40;;;;;;10316039;28;20219;-71
2023/03/08 20:00:08;;;;;;;1.43;1.27;;;13.60;36.30;;;;;;10314871;28;20238;-72
2023/03/08 20:05:11;;;;;;;1.20;1.20;;;13.60;36.80;;;;;;10314817;28;20242;-71
2023/03/08 20:10:16;;;;;;;1.57;1.20;;;13.60;36.30;;;;;;10314965;28;20321;-71
2023/03/08 20:15:21;;;;;;;1.17;1.00;;;13.60;36.40;;;;;;10313695;28;20253;-71
2023/03/08 20:20:24;;;;;;;0.93;0.90;;;13.60;36.50;;;;;;10312362;28;20617;-71
2023/03/08 20:25:27;;;;;;;1.27;1.17;;;13.60;36.60;;;;;;10316239;28;20238;-71
2023/03/08 20:30:32;;;;;;;1.00;1.00;;;13.60;36.60;;;;;;10310723;28;20227;-71
2023/03/08 20:35:35;;;;;;;0.97;0.97;;;13.50;37.00;;;;;;10310706;28;20237;-71
2023/03/08 20:40:39;;;;;;;1.10;1.00;;;13.50;37.00;;;;;;10314650;28;20647;-71
2023/03/08 20:45:43;;;;;;;0.80;0.80;;;13.40;37.00;;;;;;10313302;28;20595;-71
2023/03/08 20:50:46;;;;;;;0.87;0.87;;;13.40;37.50;;;;;;10314394;28;20317;-71
2023/03/08 20:55:49;;;;;;;1.00;0.90;;;13.30;37.60;;;;;;10312105;28;20234;-71
2023/03/08 21:00:54;;;;;;;1.13;0.93;;;13.20;37.90;;;;;;10315739;28;20226;-72
2023/03/08 21:05:57;;;;;;;1.63;1.40;;;13.10;38.30;;;;;;10309737;28;20219;-72
2023/03/08 21:11:00;;;;;;;1.30;1.20;;;13.00;38.20;;;;;;10317788;28;20922;-71
2023/03/08 21:16:07;;;;;;;1.97;1.40;;;13.00;38.70;;;;;;10314836;28;20302;-72
2023/03/08 21:21:17;;;;;;;2.13;1.53;;;12.90;39.30;;;;;;10313316;28;20318;-71
2023/03/08 21:26:21;;;;;;;2.53;1.60;;;12.90;40.10;;;;;;10315173;28;20223;-71
2023/03/08 21:31:25;;;;;;;1.50;1.40;;;12.90;39.10;;;;;;10309200;28;20231;-71
2023/03/08 21:36:29;;;;;;;1.20;1.10;;;12.90;39.90;;;;;;10309162;28;20245;-71
2023/03/08 21:41:34;;;;;;;1.17;1.07;;;12.90;39.50;;;;;;10315801;28;20235;-71
2023/03/08 21:46:40;;;;;;;1.27;1.07;;;12.90;40.00;;;;;;10317925;28;20222;-72
2023/03/08 21:51:43;;;;;;;1.20;1.07;;;13.00;40.20;;;;;;10319579;28;20226;-72
2023/03/08 21:56:47;;;;;;;1.20;1.10;;;13.00;39.80;;;;;;10317559;28;20710;-71
2023/03/08 22:01:52;;;;;;;1.20;1.10;;;13.10;40.00;;;;;;10318944;28;20226;-72
2023/03/08 22:06:56;;;;;;;1.40;1.30;;;13.10;40.30;;;;;;10317941;28;20243;-71
2023/03/08 22:11:59;;;;;;;1.80;1.70;;;13.20;40.20;;;;;;10320757;28;20738;-71
2023/03/08 22:17:03;;;;;;;1.70;1.60;;;13.30;40.10;;;;;;10317262;28;20757;-71
2023/03/08 22:22:08;;;;;;;2.67;2.00;;;13.40;40.50;;;;;;10319273;28;20242;-71
2023/03/08 22:27:12;;;;;;;1.80;1.70;;;13.50;40.40;;;;;;10321465;28;20234;-71
2023/03/08 22:32:17;;;;;;;1.80;1.70;;;13.60;40.40;;;;;;10322733;28;20215;-72
2023/03/08 22:37:20;;;;;;;1.60;1.50;;;13.60;40.30;;;;;;10324289;28;20231;-71
2023/03/08 22:42:23;;;;;;;1.93;1.30;;;13.70;40.20;;;;;;10323615;28;20265;-72
2023/03/08 22:47:28;;;;;;;1.40;1.03;;;13.80;40.00;;;;;;10321643;28;20743;-72
2023/03/08 22:52:31;;;;;;;1.40;1.30;;;13.80;40.00;;;;;;10322329;28;20754;-72
2023/03/08 22:57:36;;;;;;;1.40;1.30;;;13.90;40.50;;;;;;10321781;28;20223;-71
2023/03/08 23:02:40;;;;;;;1.77;1.53;;;13.90;39.90;;;;;;10320504;28;20301;-71
2023/03/08 23:07:44;;;;;;;1.80;1.70;;;14.00;40.00;;;;;;10322421;28;20231;-71
2023/03/08 23:12:47;;;;;;;2.10;1.87;;;14.00;39.70;;;;;;10318236;28;20235;-71
2023/03/08 23:17:52;;;;;;;1.90;1.70;;;14.00;39.70;;;;;;10321071;28;20715;-71
2023/03/08 23:22:55;;;;;;;2.10;1.90;;;14.00;39.90;;;;;;10317101;28;20243;-71
2023/03/08 23:27:58;;;;;;;1.83;1.67;;;14.00;39.60;;;;;;10319123;28;20240;-71
2023/03/08 23:33:02;;;;;;;2.00;1.90;;;14.00;39.70;;;;;;10320131;28;20226;-72
2023/03/08 23:38:06;;;;;;;2.00;1.90;;;14.00;40.00;;;;;;10321200;28;20239;-72
2023/03/08 23:43:09;;;;;;;1.90;1.80;;;14.00;40.20;;;;;;10320227;28;21214;-72
2023/03/08 23:48:13;;;;;;;2.80;1.80;;;14.10;39.60;;;;;;10318834;28;20653;-71
2023/03/08 23:53:16;;;;;;;3.80;1.90;;;14.10;40.50;;;;;;10320327;28;20311;-71
2023/03/08 23:58:19;;;;;;;1.83;1.73;;;14.10;40.30;;;;;;10318436;28;20235;-71
